Time;durP1;ratioP1;P1;durP2;ratioP2;P2;SDS_P1;SDS_P2;PMS_P1;PMS_P2;Temp;Humidity;BMP_temperature;BMP_pressure;BME280_temperature;BME280_humidity;BME280_pressure;Samples;Min_cycle;Max_cycle;Signal;HPM_P1;HPM_P2
2022/01/01 00:00:17;;;;;;;186.65;86.90;;;2.40;99.90;;;;;;5089559;28;20238;-73
2022/01/01 00:02:44;;;;;;;193.25;90.13;;;2.30;99.90;;;;;;5089594;28;20660;-73
2022/01/01 00:05:13;;;;;;;152.40;79.15;;;2.30;99.90;;;;;;5089791;28;20156;-73
2022/01/01 00:07:39;;;;;;;152.93;76.78;;;2.30;99.90;;;;;;5088353;28;20192;-73
2022/01/01 00:10:07;;;;;;;165.63;80.95;;;2.30;99.90;;;;;;5088462;28;20176;-73
2022/01/01 00:12:33;;;;;;;161.88;77.82;;;2.40;99.90;;;;;;5088012;28;20184;-73
2022/01/01 00:14:59;;;;;;;147.60;74.00;;;2.30;99.90;;;;;;5088247;28;20643;-73
2022/01/01 00:17:25;;;;;;;133.13;71.13;;;2.30;99.90;;;;;;5088205;28;20199;-73
2022/01/01 00:19:51;;;;;;;161.68;75.38;;;2.30;99.90;;;;;;5083446;28;20260;-73
2022/01/01 00:22:17;;;;;;;164.93;79.70;;;2.20;99.90;;;;;;5081450;28;20180;-73
2022/01/01 00:24:43;;;;;;;161.13;84.65;;;2.20;99.90;;;;;;5075297;28;20176;-73
2022/01/01 00:27:09;;;;;;;194.38;87.65;;;2.10;99.90;;;;;;5069397;28;20211;-73
2022/01/01 00:29:35;;;;;;;197.68;93.28;;;2.20;99.90;;;;;;5076473;28;20222;-73
2022/01/01 00:32:00;;;;;;;161.30;80.15;;;2.00;99.90;;;;;;5080910;28;20198;-73
2022/01/01 00:34:26;;;;;;;182.73;92.95;;;2.10;99.90;;;;;;5068779;28;20243;-73
2022/01/01 00:36:52;;;;;;;153.82;79.63;;;2.10;99.90;;;;;;5069257;28;20157;-73
2022/01/01 00:39:18;;;;;;;169.57;82.82;;;2.10;99.90;;;;;;5067892;28;20258;-73
2022/01/01 00:41:44;;;;;;;156.82;81.50;;;2.10;99.90;;;;;;5073544;28;20182;-73
2022/01/01 00:44:10;;;;;;;165.70;80.90;;;2.10;99.90;;;;;;5089216;28;20157;-73
2022/01/01 00:46:36;;;;;;;155.45;72.45;;;2.10;99.90;;;;;;5075416;28;20168;-73
2022/01/01 00:49:02;;;;;;;121.50;65.50;;;2.20;99.90;;;;;;5067665;28;20283;-72
2022/01/01 00:51:27;;;;;;;128.25;62.30;;;2.30;99.90;;;;;;5069581;28;20187;-73
2022/01/01 00:53:54;;;;;;;117.25;59.35;;;2.40;99.90;;;;;;5087914;28;20171;-73
2022/01/01 00:56:19;;;;;;;125.78;59.70;;;2.50;99.90;;;;;;5089130;28;20160;-73
2022/01/01 00:58:45;;;;;;;121.72;57.55;;;2.60;99.90;;;;;;5088747;28;20231;-73
2022/01/01 01:01:12;;;;;;;116.50;55.40;;;2.60;99.90;;;;;;5089159;28;20184;-73
2022/01/01 01:03:38;;;;;;;110.85;55.75;;;2.60;99.90;;;;;;5075436;28;20206;-73
2022/01/01 01:06:04;;;;;;;98.10;52.38;;;2.70;99.90;;;;;;5068978;28;20153;-73
2022/01/01 01:08:30;;;;;;;61.17;29.40;;;3.40;99.90;;;;;;5067445;28;20192;-73
2022/01/01 01:10:57;;;;;;;14.55;8.68;;;4.10;99.90;;;;;;5067652;28;20232;-73
2022/01/01 01:13:24;;;;;;;10.20;6.15;;;7.50;99.90;;;;;;5084110;28;20172;-73
2022/01/01 01:15:50;;;;;;;8.30;3.45;;;8.70;99.90;;;;;;5087754;28;20190;-74
2022/01/01 01:18:16;;;;;;;2.95;1.40;;;9.50;99.90;;;;;;5087491;28;20282;-74
2022/01/01 01:20:42;;;;;;;1.77;1.00;;;10.90;99.90;;;;;;5088824;28;20152;-73
2022/01/01 01:23:09;;;;;;;2.40;1.23;;;11.70;99.90;;;;;;5087630;28;20164;-72
2022/01/01 01:25:40;;;;;;;1.20;0.70;;;12.00;99.90;;;;;;5088975;28;20171;-73
2022/01/01 01:28:08;;;;;;;1.52;0.90;;;13.00;99.90;;;;;;5088820;28;20148;-73
2022/01/01 01:30:37;;;;;;;1.30;1.00;;;12.80;99.90;;;;;;5077525;28;20173;-73
2022/01/01 01:33:04;;;;;;;1.75;0.90;;;12.10;99.90;;;;;;5079621;28;20171;-73
2022/01/01 01:35:30;;;;;;;1.20;1.10;;;11.80;99.90;;;;;;5088855;28;20152;-73
2022/01/01 01:37:56;;;;;;;2.67;1.55;;;11.90;99.90;;;;;;5088710;28;20167;-73
2022/01/01 01:40:22;;;;;;;1.52;0.60;;;11.70;99.90;;;;;;5088735;28;20183;-73
2022/01/01 01:42:47;;;;;;;1.00;0.90;;;12.00;99.90;;;;;;5087362;28;20168;-73
2022/01/01 01:45:18;;;;;;;2.38;1.30;;;12.10;99.90;;;;;;5088722;28;20148;-72
2022/01/01 01:47:45;;;;;;;17.60;12.32;;;11.70;99.90;;;;;;5087360;28;20186;-73
2022/01/01 01:50:13;;;;;;;29.55;20.65;;;11.30;99.90;;;;;;5088689;28;20217;-73
2022/01/01 01:52:43;;;;;;;33.92;22.45;;;9.50;99.90;;;;;;5088256;28;20194;-72
2022/01/01 01:55:11;;;;;;;37.67;23.25;;;7.90;99.90;;;;;;5087373;28;20625;-72
2022/01/01 01:57:39;;;;;;;38.60;22.20;;;7.00;99.90;;;;;;5088487;28;20160;-73
2022/01/01 02:00:18;;;;;;;41.97;20.75;;;6.40;99.90;;;;;;5088148;28;20199;-72
2022/01/01 02:02:44;;;;;;;42.28;21.90;;;6.00;99.90;;;;;;5090944;28;20183;-72
2022/01/01 02:05:10;;;;;;;31.92;19.75;;;5.80;99.90;;;;;;5092285;28;20182;-72
2022/01/01 02:07:36;;;;;;;25.63;16.48;;;5.60;99.90;;;;;;5092180;28;20186;-73
2022/01/01 02:10:04;;;;;;;28.60;18.00;;;5.60;99.90;;;;;;5092058;28;20207;-73
2022/01/01 02:12:30;;;;;;;28.83;17.67;;;5.70;99.90;;;;;;5090426;28;20180;-72
2022/01/01 02:17:27;;;;;;;31.45;17.42;;;5.50;99.90;;;;;;5092058;28;20168;-73
2022/01/01 02:19:59;;;;;;;33.42;18.50;;;5.40;99.90;;;;;;5091860;28;20206;-72
2022/01/01 02:22:36;;;;;;;26.60;17.42;;;5.20;99.90;;;;;;5091505;28;20179;-73
2022/01/01 02:25:03;;;;;;;29.75;16.55;;;5.20;99.90;;;;;;5091877;28;20152;-72
2022/01/01 02:27:28;;;;;;;27.52;16.35;;;5.20;99.90;;;;;;5090678;28;20538;-73
2022/01/01 02:29:54;;;;;;;24.20;15.73;;;5.20;99.90;;;;;;5085447;28;20204;-72
2022/01/01 02:32:20;;;;;;;26.95;16.00;;;5.20;99.90;;;;;;5072159;28;20229;-73
2022/01/01 02:34:46;;;;;;;30.95;16.13;;;5.00;99.90;;;;;;5089212;28;20179;-73
2022/01/01 02:37:12;;;;;;;24.45;15.90;;;4.90;99.90;;;;;;5091534;28;20167;-73
2022/01/01 02:39:38;;;;;;;31.17;16.55;;;4.80;99.90;;;;;;5091403;28;20208;-73
2022/01/01 02:42:08;;;;;;;27.80;15.13;;;4.60;99.90;;;;;;5090167;28;20160;-73
2022/01/01 02:44:34;;;;;;;25.60;15.48;;;4.60;99.90;;;;;;5089517;28;20175;-73
2022/01/01 02:47:01;;;;;;;25.02;15.05;;;4.60;99.90;;;;;;5091456;28;20185;-72
2022/01/01 02:49:27;;;;;;;27.10;14.93;;;4.50;99.90;;;;;;5091233;28;20156;-73
2022/01/01 02:51:53;;;;;;;24.42;14.20;;;4.50;99.90;;;;;;5091395;28;20164;-73
2022/01/01 02:54:19;;;;;;;27.05;15.15;;;4.50;99.90;;;;;;5089558;28;20252;-73
2022/01/01 02:56:45;;;;;;;25.95;13.93;;;4.40;99.90;;;;;;5089952;28;20194;-72
2022/01/01 02:59:11;;;;;;;28.90;14.55;;;4.30;99.90;;;;;;5090934;28;20647;-72
2022/01/01 03:01:37;;;;;;;25.92;13.98;;;4.20;99.90;;;;;;5089818;28;20188;-73
2022/01/01 03:04:03;;;;;;;25.08;14.07;;;4.10;99.90;;;;;;5089939;28;20175;-72
2022/01/01 03:06:29;;;;;;;25.05;14.63;;;4.00;99.90;;;;;;5091154;28;20180;-73
2022/01/01 03:08:56;;;;;;;24.63;14.18;;;3.90;99.90;;;;;;5091070;28;20187;-73
2022/01/01 03:11:23;;;;;;;28.52;15.80;;;3.80;99.90;;;;;;5090929;28;20195;-73
2022/01/01 03:13:49;;;;;;;23.48;13.70;;;3.80;99.90;;;;;;5088807;28;20213;-73
2022/01/01 03:16:16;;;;;;;25.60;14.88;;;3.80;99.90;;;;;;5089428;28;20167;-72
2022/01/01 03:18:41;;;;;;;25.88;14.93;;;3.90;99.90;;;;;;5089477;28;20201;-73
2022/01/01 03:21:07;;;;;;;25.35;13.75;;;3.90;99.90;;;;;;5090770;28;20199;-72
2022/01/01 03:23:34;;;;;;;28.75;13.13;;;3.90;99.90;;;;;;5090495;28;20183;-72
2022/01/01 03:26:00;;;;;;;28.10;14.75;;;3.90;99.90;;;;;;5090800;28;20179;-73
2022/01/01 03:28:28;;;;;;;26.95;15.02;;;3.80;99.90;;;;;;5090668;28;20167;-72
2022/01/01 03:30:55;;;;;;;25.67;14.20;;;3.80;99.90;;;;;;5090552;28;20188;-72
2022/01/01 03:33:21;;;;;;;23.45;12.68;;;3.90;99.90;;;;;;5088907;28;20172;-72
2022/01/01 03:35:48;;;;;;;24.42;13.65;;;3.90;99.90;;;;;;5090467;28;20180;-72
2022/01/01 03:38:15;;;;;;;24.25;12.82;;;3.90;99.90;;;;;;5089088;28;20252;-72
2022/01/01 03:40:41;;;;;;;29.05;14.90;;;3.90;99.90;;;;;;5089039;28;20212;-73
2022/01/01 03:43:07;;;;;;;22.67;14.88;;;3.80;99.90;;;;;;5090305;28;20662;-73
2022/01/01 03:45:33;;;;;;;24.83;15.13;;;3.70;99.90;;;;;;5088644;28;20184;-73
2022/01/01 03:47:59;;;;;;;29.67;14.80;;;3.60;99.90;;;;;;5090190;28;20163;-73
2022/01/01 03:50:25;;;;;;;26.33;16.30;;;3.50;99.90;;;;;;5090108;28;20710;-73
2022/01/01 03:52:51;;;;;;;30.48;18.10;;;3.50;99.90;;;;;;5090050;28;20241;-72
2022/01/01 03:55:17;;;;;;;29.40;16.27;;;3.60;99.90;;;;;;5089615;28;20180;-72
2022/01/01 03:57:43;;;;;;;25.38;15.48;;;3.70;99.90;;;;;;5088526;28;20231;-73
2022/01/01 04:00:15;;;;;;;23.02;14.40;;;3.60;99.90;;;;;;5089842;28;20209;-72
2022/01/01 04:02:41;;;;;;;30.08;15.82;;;3.60;99.90;;;;;;5089904;28;20172;-72
2022/01/01 04:05:08;;;;;;;28.95;15.75;;;3.50;99.90;;;;;;5089832;28;20161;-73
2022/01/01 04:07:33;;;;;;;25.67;15.13;;;3.50;99.90;;;;;;5089876;28;20156;-73
2022/01/01 04:10:00;;;;;;;27.85;14.52;;;3.60;99.90;;;;;;5089760;28;20195;-73
2022/01/01 04:12:26;;;;;;;28.05;15.57;;;3.70;99.90;;;;;;5089807;28;20673;-72
2022/01/01 04:14:53;;;;;;;25.38;15.07;;;3.70;99.90;;;;;;5089302;28;20203;-72
2022/01/01 04:17:19;;;;;;;24.63;14.27;;;3.60;99.90;;;;;;5089708;28;20164;-73
2022/01/01 04:19:45;;;;;;;29.20;15.38;;;3.50;99.90;;;;;;5089570;28;20208;-73
2022/01/01 04:22:15;;;;;;;23.42;14.05;;;3.60;99.90;;;;;;5088090;28;20168;-73
2022/01/01 04:24:41;;;;;;;29.80;15.13;;;3.60;99.90;;;;;;5088577;28;20186;-72
2022/01/01 04:27:08;;;;;;;26.80;14.35;;;3.60;99.90;;;;;;5088202;28;20179;-73
2022/01/01 04:29:35;;;;;;;25.92;15.10;;;3.50;99.90;;;;;;5089510;28;20221;-72
2022/01/01 04:32:01;;;;;;;24.25;15.90;;;3.50;99.90;;;;;;5089353;28;20156;-73
2022/01/01 04:34:28;;;;;;;25.70;14.55;;;3.50;99.90;;;;;;5089133;28;20190;-72
2022/01/01 04:37:03;;;;;;;24.48;14.55;;;3.50;99.90;;;;;;5088096;28;20164;-72
2022/01/01 04:39:30;;;;;;;24.02;14.95;;;3.40;99.90;;;;;;5089190;28;20203;-73
2022/01/01 04:41:57;;;;;;;26.67;14.75;;;3.40;99.90;;;;;;5089203;28;20209;-73
2022/01/01 04:44:23;;;;;;;22.90;14.32;;;3.40;99.90;;;;;;5087613;28;20168;-73
2022/01/01 04:46:49;;;;;;;27.10;15.13;;;3.60;99.90;;;;;;5089219;28;20193;-73
2022/01/01 04:49:15;;;;;;;28.08;14.73;;;3.70;99.90;;;;;;5089275;28;20164;-72
2022/01/01 04:51:41;;;;;;;23.65;14.18;;;3.60;99.90;;;;;;5089100;28;20267;-72
2022/01/01 04:54:14;;;;;;;24.38;13.35;;;3.50;99.90;;;;;;5088871;28;20183;-73
2022/01/01 04:56:47;;;;;;;25.55;14.20;;;3.50;99.90;;;;;;5089067;28;20160;-72
2022/01/01 04:59:14;;;;;;;26.67;15.23;;;3.50;99.90;;;;;;5088846;28;20298;-72
2022/01/01 05:01:41;;;;;;;30.80;15.77;;;3.40;99.90;;;;;;5089096;28;20274;-73
2022/01/01 05:04:08;;;;;;;26.67;15.35;;;3.30;99.90;;;;;;5087897;28;20250;-73
2022/01/01 05:06:34;;;;;;;28.75;16.58;;;3.20;99.90;;;;;;5089042;28;20183;-73
2022/01/01 05:09:00;;;;;;;22.10;14.20;;;3.10;99.90;;;;;;5087787;28;20176;-73
2022/01/01 05:11:27;;;;;;;23.17;13.65;;;3.00;99.90;;;;;;5087653;28;20196;-74
2022/01/01 05:13:53;;;;;;;24.20;14.07;;;2.90;99.90;;;;;;5087683;28;20172;-72
2022/01/01 05:16:22;;;;;;;26.85;15.25;;;2.90;99.90;;;;;;5088583;28;20243;-73
2022/01/01 05:18:48;;;;;;;25.85;13.95;;;2.80;99.90;;;;;;5088808;28;20184;-73
2022/01/01 05:21:15;;;;;;;24.83;13.93;;;2.70;99.90;;;;;;5088722;28;20210;-73
2022/01/01 05:23:41;;;;;;;29.30;15.23;;;2.70;99.90;;;;;;5088969;28;20160;-73
2022/01/01 05:26:07;;;;;;;23.60;14.43;;;2.60;99.90;;;;;;5087116;28;20529;-72
2022/01/01 05:28:33;;;;;;;21.23;13.15;;;2.70;99.90;;;;;;5087787;28;20263;-73
2022/01/01 05:30:59;;;;;;;27.95;13.35;;;2.70;99.90;;;;;;5088718;28;20239;-73
2022/01/01 05:33:25;;;;;;;23.15;12.18;;;2.70;99.90;;;;;;5088811;28;20227;-73
2022/01/01 05:35:51;;;;;;;23.27;13.68;;;2.70;99.90;;;;;;5088539;28;20247;-73
2022/01/01 05:38:17;;;;;;;22.98;13.13;;;2.80;99.90;;;;;;5092640;28;20223;-72
2022/01/01 05:40:43;;;;;;;21.50;12.93;;;2.80;99.90;;;;;;5092640;28;20180;-73
2022/01/01 05:43:13;;;;;;;26.45;13.40;;;2.80;99.90;;;;;;5091436;28;20166;-73
2022/01/01 05:45:44;;;;;;;22.30;12.30;;;2.80;99.90;;;;;;5092228;28;20178;-72
2022/01/01 05:48:10;;;;;;;23.40;13.30;;;2.80;99.90;;;;;;5092531;28;20172;-73
2022/01/01 05:50:36;;;;;;;23.23;13.98;;;2.80;99.90;;;;;;5092493;28;20196;-72
2022/01/01 05:53:02;;;;;;;27.60;13.43;;;2.80;99.90;;;;;;5091088;28;20160;-73
2022/01/01 05:55:28;;;;;;;20.42;11.85;;;2.80;99.90;;;;;;5090736;28;20553;-72
2022/01/01 05:57:54;;;;;;;22.52;12.85;;;2.80;99.90;;;;;;5090554;28;20708;-73
2022/01/01 06:00:20;;;;;;;20.05;11.07;;;2.80;99.90;;;;;;5092148;28;20203;-72
2022/01/01 06:02:45;;;;;;;19.95;10.50;;;2.70;99.90;;;;;;5092366;28;20148;-72
2022/01/01 06:05:12;;;;;;;16.63;9.75;;;2.60;99.90;;;;;;5092158;28;20166;-72
2022/01/01 06:07:38;;;;;;;16.20;10.18;;;2.60;99.90;;;;;;5092206;28;20149;-72
2022/01/01 06:10:05;;;;;;;24.98;10.40;;;2.70;99.90;;;;;;5092033;28;20222;-72
2022/01/01 06:12:31;;;;;;;17.40;10.45;;;2.70;99.90;;;;;;5092081;28;20168;-73
2022/01/01 06:14:57;;;;;;;19.77;10.50;;;2.80;99.90;;;;;;5090306;28;20545;-73
2022/01/01 06:17:23;;;;;;;20.98;11.40;;;2.90;99.90;;;;;;5090679;28;20232;-73
2022/01/01 06:19:49;;;;;;;22.33;11.43;;;2.90;99.90;;;;;;5091735;28;20200;-72
2022/01/01 06:22:15;;;;;;;16.02;9.73;;;2.80;99.90;;;;;;5091935;28;20160;-72
2022/01/01 06:24:40;;;;;;;17.00;9.70;;;2.80;99.90;;;;;;5091326;28;20156;-74
2022/01/01 06:27:06;;;;;;;15.98;8.82;;;2.80;99.90;;;;;;5090421;28;20641;-73
2022/01/01 06:29:32;;;;;;;19.50;10.13;;;2.80;99.90;;;;;;5091705;28;20164;-72
2022/01/01 06:31:58;;;;;;;15.20;9.52;;;2.80;99.90;;;;;;5091675;28;20164;-72
2022/01/01 06:34:24;;;;;;;16.42;9.85;;;2.80;99.90;;;;;;5090271;28;20191;-72
2022/01/01 06:36:51;;;;;;;18.55;9.63;;;2.70;99.90;;;;;;5091648;28;20187;-73
2022/01/01 06:39:18;;;;;;;17.80;9.77;;;2.60;99.90;;;;;;5090225;28;20226;-73
2022/01/01 06:41:44;;;;;;;19.42;9.90;;;2.60;99.90;;;;;;5091575;28;20187;-73
2022/01/01 06:44:10;;;;;;;13.60;9.70;;;2.60;99.90;;;;;;5091469;28;20161;-74
2022/01/01 06:46:36;;;;;;;16.27;8.55;;;2.60;99.90;;;;;;5091092;28;20175;-72
2022/01/01 06:49:01;;;;;;;16.73;8.60;;;2.60;99.90;;;;;;5090733;28;20618;-73
2022/01/01 06:51:27;;;;;;;19.17;10.50;;;2.70;99.90;;;;;;5091309;28;20203;-73
2022/01/01 06:53:53;;;;;;;16.98;10.40;;;2.80;99.90;;;;;;5091371;28;20156;-72
2022/01/01 06:56:19;;;;;;;17.70;9.65;;;2.70;99.90;;;;;;5090732;28;20199;-73
2022/01/01 06:58:45;;;;;;;18.42;10.60;;;2.80;99.90;;;;;;5090695;28;20219;-72
2022/01/01 07:01:11;;;;;;;18.60;10.13;;;2.80;99.90;;;;;;5089482;28;20222;-73
2022/01/01 07:03:37;;;;;;;16.10;8.93;;;2.80;99.90;;;;;;5091167;28;20157;-72
2022/01/01 07:06:03;;;;;;;16.80;9.65;;;2.90;99.90;;;;;;5089235;28;20176;-72
2022/01/01 07:08:29;;;;;;;16.48;8.43;;;3.00;99.90;;;;;;5089643;28;20161;-73
2022/01/01 07:10:56;;;;;;;15.35;9.82;;;3.20;99.90;;;;;;5089608;28;20267;-72
2022/01/01 07:13:21;;;;;;;17.10;9.48;;;3.30;99.90;;;;;;5089462;28;20171;-72
2022/01/01 07:15:48;;;;;;;16.95;10.85;;;3.30;99.90;;;;;;5089197;28;20180;-74
2022/01/01 07:18:14;;;;;;;19.40;10.82;;;3.40;99.90;;;;;;5089322;28;20157;-73
2022/01/01 07:20:39;;;;;;;19.98;11.63;;;3.40;99.90;;;;;;5090428;28;20184;-72
2022/01/01 07:23:05;;;;;;;17.02;10.60;;;3.40;99.90;;;;;;5090636;28;20160;-73
2022/01/01 07:25:31;;;;;;;18.17;9.75;;;3.60;99.90;;;;;;5089936;28;20183;-73
2022/01/01 07:27:57;;;;;;;18.98;10.50;;;3.70;99.90;;;;;;5090305;28;20719;-72
2022/01/01 07:30:23;;;;;;;17.33;9.65;;;3.80;99.90;;;;;;5088905;28;20334;-73
2022/01/01 07:32:50;;;;;;;20.25;10.77;;;4.10;99.90;;;;;;5090286;28;20192;-72
2022/01/01 07:35:17;;;;;;;19.58;10.30;;;4.10;99.90;;;;;;5088941;28;20168;-73
2022/01/01 07:37:44;;;;;;;16.17;8.93;;;4.20;99.90;;;;;;5089880;28;20160;-73
2022/01/01 07:40:12;;;;;;;17.15;9.95;;;4.20;99.90;;;;;;5089696;28;20204;-74
2022/01/01 07:42:40;;;;;;;17.77;10.68;;;4.30;99.90;;;;;;5090184;28;20171;-73
2022/01/01 07:45:09;;;;;;;19.85;11.40;;;4.50;99.90;;;;;;5090091;28;20159;-73
2022/01/01 07:47:35;;;;;;;23.85;13.50;;;4.60;99.90;;;;;;5089464;28;20176;-73
2022/01/01 07:50:01;;;;;;;24.85;12.20;;;5.20;99.90;;;;;;5089855;28;20231;-73
2022/01/01 07:52:27;;;;;;;24.75;14.57;;;5.50;99.90;;;;;;5089996;28;20222;-72
2022/01/01 07:54:53;;;;;;;19.83;12.77;;;5.20;99.90;;;;;;5089981;28;20227;-73
2022/01/01 07:57:19;;;;;;;20.00;12.50;;;5.40;99.90;;;;;;5089432;28;20187;-72
2022/01/01 07:59:45;;;;;;;22.17;11.27;;;5.60;99.90;;;;;;5087186;28;20223;-73
2022/01/01 08:02:11;;;;;;;20.90;11.02;;;5.80;99.90;;;;;;5089715;28;20162;-73
2022/01/01 08:04:37;;;;;;;17.58;11.75;;;6.30;99.90;;;;;;5088260;28;20232;-73
2022/01/01 08:07:03;;;;;;;15.32;10.38;;;6.90;99.90;;;;;;5089330;28;20149;-74
2022/01/01 08:09:29;;;;;;;13.02;9.10;;;7.70;99.90;;;;;;5088139;28;20168;-73
2022/01/01 08:11:55;;;;;;;14.77;8.63;;;7.70;99.90;;;;;;5089550;28;20171;-73
2022/01/01 08:14:22;;;;;;;12.05;7.55;;;7.70;99.90;;;;;;5089638;28;20156;-73
2022/01/01 08:17:03;;;;;;;14.32;8.63;;;7.70;99.90;;;;;;5087779;28;20192;-73
2022/01/01 08:19:29;;;;;;;16.15;9.70;;;8.80;99.90;;;;;;5089181;28;20180;-73
2022/01/01 08:21:55;;;;;;;14.88;8.30;;;9.90;99.90;;;;;;5089458;28;20152;-73
2022/01/01 08:24:22;;;;;;;12.32;8.00;;;11.00;99.90;;;;;;5087998;28;20164;-73
2022/01/01 08:26:49;;;;;;;13.35;8.15;;;11.50;99.90;;;;;;5088938;28;20183;-73
2022/01/01 08:29:15;;;;;;;14.35;8.35;;;11.60;99.90;;;;;;5087869;28;20176;-73
2022/01/01 08:31:42;;;;;;;16.20;8.43;;;11.20;99.90;;;;;;5089172;28;20255;-73
2022/01/01 08:34:08;;;;;;;12.25;8.00;;;11.30;99.90;;;;;;5087676;28;20187;-73
2022/01/01 08:36:34;;;;;;;10.50;8.07;;;11.40;99.90;;;;;;5088008;28;20167;-73
2022/01/01 08:39:00;;;;;;;15.57;9.95;;;11.10;99.90;;;;;;5089097;28;20722;-74
2022/01/01 08:41:26;;;;;;;19.15;10.48;;;11.30;99.90;;;;;;5089031;28;20192;-73
2022/01/01 08:43:53;;;;;;;13.77;8.90;;;11.80;99.90;;;;;;5087697;28;20182;-73
2022/01/01 08:46:19;;;;;;;12.25;8.10;;;12.40;99.90;;;;;;5087443;28;20188;-74
2022/01/01 08:48:45;;;;;;;15.90;9.73;;;12.60;99.90;;;;;;5088920;28;20210;-73
2022/01/01 08:51:18;;;;;;;14.52;7.97;;;12.80;99.90;;;;;;5088886;28;20195;-73
2022/01/01 08:53:44;;;;;;;15.00;8.15;;;12.90;99.90;;;;;;5087585;28;20164;-73
2022/01/01 08:56:10;;;;;;;14.23;9.05;;;13.20;99.90;;;;;;5088519;28;20202;-73
2022/01/01 08:58:36;;;;;;;11.95;8.10;;;13.40;99.90;;;;;;5087221;28;20373;-74
2022/01/01 09:01:03;;;;;;;12.35;8.80;;;14.00;99.90;;;;;;5088760;28;20191;-73
2022/01/01 09:03:30;;;;;;;14.00;9.50;;;14.00;99.90;;;;;;5087598;28;20636;-73
2022/01/01 09:05:56;;;;;;;15.80;10.27;;;14.30;99.90;;;;;;5088891;28;20160;-73
2022/01/01 09:08:22;;;;;;;14.02;9.57;;;14.00;99.90;;;;;;5088731;28;20319;-73
2022/01/01 09:10:48;;;;;;;14.93;10.32;;;13.90;99.90;;;;;;5088456;28;20248;-73
2022/01/01 09:13:14;;;;;;;12.13;9.10;;;14.10;99.90;;;;;;5088722;28;20247;-74
2022/01/01 09:15:39;;;;;;;13.98;10.10;;;14.60;99.90;;;;;;5088754;28;20622;-73
2022/01/01 09:18:05;;;;;;;13.75;9.40;;;14.90;99.90;;;;;;5086999;28;20202;-73
2022/01/01 09:20:31;;;;;;;15.40;9.70;;;14.90;99.90;;;;;;5088422;28;20226;-73
2022/01/01 09:22:57;;;;;;;16.25;10.98;;;15.00;99.90;;;;;;5087286;28;20227;-73
2022/01/01 09:25:23;;;;;;;13.55;9.35;;;15.00;99.90;;;;;;5088660;28;20167;-74
2022/01/01 09:27:49;;;;;;;13.55;9.18;;;15.20;99.90;;;;;;5075696;28;20184;-74
2022/01/01 09:30:15;;;;;;;12.80;8.05;;;14.90;99.90;;;;;;5082814;28;20192;-74
2022/01/01 09:32:41;;;;;;;12.95;7.68;;;14.90;99.90;;;;;;5068449;28;20180;-73
2022/01/01 09:35:07;;;;;;;11.43;7.75;;;15.00;99.90;;;;;;5077472;28;20640;-73
2022/01/01 09:37:33;;;;;;;10.63;7.90;;;15.10;99.90;;;;;;5088180;28;20198;-72
2022/01/01 09:40:00;;;;;;;11.85;7.28;;;15.60;99.90;;;;;;5088279;28;20204;-73
2022/01/01 09:42:27;;;;;;;10.55;7.45;;;16.20;99.90;;;;;;5088547;28;20161;-72
2022/01/01 09:44:53;;;;;;;11.50;7.47;;;16.90;99.90;;;;;;5067465;28;20179;-73
2022/01/01 09:47:19;;;;;;;13.30;8.07;;;17.00;99.90;;;;;;5078118;28;20191;-73
2022/01/01 09:49:45;;;;;;;9.93;7.55;;;17.40;99.90;;;;;;5086890;28;20226;-72
2022/01/01 09:52:14;;;;;;;9.13;6.53;;;17.50;99.90;;;;;;5088380;28;20636;-73
2022/01/01 09:54:41;;;;;;;10.70;7.40;;;17.60;99.90;;;;;;5078843;28;20237;-72
2022/01/01 09:57:10;;;;;;;10.75;7.35;;;17.60;99.90;;;;;;5068319;28;20236;-72
2022/01/01 09:59:38;;;;;;;8.90;6.70;;;17.40;99.90;;;;;;5067774;28;20232;-73
2022/01/01 10:02:04;;;;;;;14.10;7.22;;;17.10;99.90;;;;;;5068249;28;20220;-72
2022/01/01 10:04:52;;;;;;;13.07;7.60;;;17.20;99.90;;;;;;5068121;28;20153;-72
2022/01/01 10:07:26;;;;;;;11.65;8.27;;;17.00;99.90;;;;;;5074946;28;20210;-73
2022/01/01 10:09:52;;;;;;;12.02;7.55;;;17.30;99.90;;;;;;5088054;28;20277;-73
2022/01/01 10:12:19;;;;;;;12.93;7.53;;;17.40;99.90;;;;;;5088117;28;20212;-73
2022/01/01 10:14:48;;;;;;;11.63;8.70;;;18.00;99.90;;;;;;5088149;28;20168;-73
2022/01/01 10:17:19;;;;;;;14.90;10.18;;;18.20;99.90;;;;;;5087917;28;20179;-73
2022/01/01 10:19:46;;;;;;;13.98;9.38;;;17.80;99.90;;;;;;5086733;28;20212;-73
2022/01/01 10:22:14;;;;;;;13.05;8.60;;;17.80;99.90;;;;;;5086863;28;20167;-73
2022/01/01 10:27:42;;;;;;;15.60;9.73;;;17.90;99.90;;;;;;5086554;28;20230;-73
2022/01/01 10:30:17;;;;;;;15.65;10.05;;;17.80;99.90;;;;;;5070093;28;20204;-72
2022/01/01 10:33:04;;;;;;;15.02;9.65;;;17.30;99.90;;;;;;5071589;28;20163;-73
2022/01/01 10:35:36;;;;;;;12.70;9.18;;;17.20;99.90;;;;;;5084663;28;20231;-73
2022/01/01 10:38:12;;;;;;;13.70;8.95;;;17.40;99.90;;;;;;5089758;28;20186;-73
2022/01/01 10:40:38;;;;;;;11.88;7.93;;;18.10;99.90;;;;;;5091266;28;20650;-73
2022/01/01 10:43:05;;;;;;;12.38;8.52;;;18.00;99.90;;;;;;5091433;28;20156;-73
2022/01/01 10:45:45;;;;;;;22.70;9.95;;;18.10;99.90;;;;;;5091389;28;20197;-73
2022/01/01 10:50:49;;;;;;;19.17;9.82;;;18.40;99.90;;;;;;5091282;28;20285;-73
2022/01/01 10:53:25;;;;;;;14.60;8.18;;;18.30;99.90;;;;;;5091300;28;20183;-73
2022/01/01 10:55:53;;;;;;;10.88;7.65;;;18.10;99.90;;;;;;5091275;28;20152;-73
2022/01/01 10:58:26;;;;;;;15.40;7.45;;;18.20;99.90;;;;;;5090467;28;20283;-73
2022/01/01 11:00:58;;;;;;;15.98;8.65;;;18.60;99.90;;;;;;5082857;28;20195;-73
2022/01/01 11:03:24;;;;;;;14.15;8.70;;;19.20;99.90;;;;;;5071040;28;20206;-73
2022/01/01 11:06:06;;;;;;;22.13;9.45;;;19.40;99.90;;;;;;5071030;28;20175;-74
2022/01/01 11:08:36;;;;;;;15.10;8.90;;;19.80;99.90;;;;;;5084874;28;20200;-73
2022/01/01 11:11:03;;;;;;;9.65;6.63;;;19.90;99.90;;;;;;5090865;28;20187;-73
2022/01/01 11:13:31;;;;;;;13.70;8.07;;;20.00;99.90;;;;;;5090854;28;20231;-73
2022/01/01 11:15:57;;;;;;;11.57;6.07;;;20.30;99.90;;;;;;5090923;28;20190;-73
2022/01/01 11:18:25;;;;;;;7.93;6.03;;;19.80;99.90;;;;;;5089355;28;20179;-73
2022/01/01 11:20:52;;;;;;;12.00;6.70;;;19.60;99.90;;;;;;5090022;28;20213;-72
2022/01/01 11:23:20;;;;;;;10.82;5.95;;;19.50;99.90;;;;;;5090728;28;20156;-73
2022/01/01 11:25:46;;;;;;;8.40;5.32;;;19.50;99.90;;;;;;5090726;28;20187;-73
2022/01/01 11:28:18;;;;;;;17.40;7.75;;;19.30;99.90;;;;;;5085392;28;20244;-73
2022/01/01 11:31:07;;;;;;;16.95;7.75;;;19.60;99.90;;;;;;5070418;28;20222;-73
2022/01/01 11:33:42;;;;;;;13.63;6.68;;;19.90;99.90;;;;;;5070477;28;20254;-73
2022/01/01 11:36:18;;;;;;;16.50;7.97;;;19.70;99.90;;;;;;5090086;28;20195;-73
2022/01/01 11:38:45;;;;;;;9.60;6.30;;;19.80;99.90;;;;;;5083584;28;20195;-73
2022/01/01 11:41:12;;;;;;;14.75;6.88;;;20.00;99.90;;;;;;5068791;28;20187;-73
2022/01/01 11:43:58;;;;;;;17.25;7.20;;;20.00;99.90;;;;;;5070314;28;20238;-73
2022/01/01 11:46:29;;;;;;;10.70;7.88;;;20.10;99.90;;;;;;5069945;28;20208;-73
2022/01/01 11:48:59;;;;;;;15.48;10.60;;;19.60;99.90;;;;;;5081303;28;20225;-72
2022/01/01 11:51:35;;;;;;;20.35;10.05;;;18.80;99.90;;;;;;5089900;28;20191;-73
2022/01/01 11:54:23;;;;;;;13.30;8.70;;;18.10;99.90;;;;;;5090131;28;20242;-72
2022/01/01 11:56:58;;;;;;;32.95;17.23;;;17.20;99.90;;;;;;5088583;28;20175;-73
2022/01/01 11:59:40;;;;;;;17.42;9.95;;;17.10;99.90;;;;;;5087732;28;20230;-72
2022/01/01 12:02:18;;;;;;;26.80;12.25;;;17.00;99.90;;;;;;5088477;28;20193;-72
2022/01/01 12:04:45;;;;;;;32.95;15.05;;;17.00;99.90;;;;;;5089785;28;20152;-73
2022/01/01 12:07:28;;;;;;;13.32;8.40;;;16.90;99.90;;;;;;5089810;28;20159;-72
2022/01/01 12:10:06;;;;;;;16.10;8.98;;;17.40;99.90;;;;;;5089621;28;20195;-73
2022/01/01 12:12:54;;;;;;;15.48;8.52;;;17.20;99.90;;;;;;5089542;28;20235;-72
2022/01/01 12:15:41;;;;;;;14.18;8.75;;;17.00;99.90;;;;;;5089510;28;20239;-72
2022/01/01 12:18:19;;;;;;;17.13;8.77;;;17.30;99.90;;;;;;5089099;28;20186;-72
2022/01/01 12:21:03;;;;;;;16.20;8.40;;;17.20;99.90;;;;;;5089340;28;20199;-73
2022/01/01 12:23:37;;;;;;;14.70;8.57;;;17.10;99.90;;;;;;5089384;28;20155;-73
2022/01/01 12:26:09;;;;;;;13.05;7.78;;;17.20;99.90;;;;;;5089567;28;20572;-72
2022/01/01 12:28:40;;;;;;;16.80;8.23;;;17.90;99.90;;;;;;5088814;28;20202;-72
2022/01/01 12:31:14;;;;;;;11.30;7.40;;;18.00;99.90;;;;;;5089308;28;20192;-73
2022/01/01 12:33:44;;;;;;;15.60;8.13;;;18.00;99.90;;;;;;5089134;28;20155;-72
2022/01/01 12:36:16;;;;;;;14.02;8.00;;;17.70;99.90;;;;;;5069191;28;20187;-73
2022/01/01 12:38:53;;;;;;;15.35;8.50;;;17.10;99.90;;;;;;5069101;28;20494;-73
2022/01/01 12:41:35;;;;;;;14.52;8.32;;;16.50;99.90;;;;;;5069110;28;20200;-73
2022/01/01 12:44:07;;;;;;;13.30;8.05;;;15.80;99.90;;;;;;5069113;28;20224;-72
2022/01/01 12:46:37;;;;;;;13.10;7.82;;;15.10;99.90;;;;;;5067171;28;20605;-72
2022/01/01 12:49:08;;;;;;;14.35;8.43;;;14.90;99.90;;;;;;5078272;28;20278;-72